In Rescue
 
Wind Gusting 15 knots
09
February 24, 2019 12:38 AM EST
Present Weather: Light Rain
Weather Information
Wind Direction
  150 °
Wind Speed
  09 kt (10 mph)
Wind Gust
  15 kt (17 mph)
Altimeter
29.55 in
Visibility
3 SM
Temperature
03° C
37° F
Dewpoint
02° C
36° F
Humidity
93%
1hr Rain Fall
00.00 in.
24hr Rain Fall
00.00 in.
Sky Condition
Overcast @ 300 ft
LIFR

METAR KD95 240538Z AUTO 15009G15KT 3SM -RA OVC003 03/02 A2955 RMK AO2 T00280021

FAA Disclaimer: The data displayed is for advisory purposes only and is not to be used for flight planning or operations.